Time;durP1;ratioP1;P1;durP2;ratioP2;P2;SDS_P1;SDS_P2;PMS_P1;PMS_P2;Temp;Humidity;BMP_temperature;BMP_pressure;BME280_temperature;BME280_humidity;BME280_pressure;Samples;Min_cycle;Max_cycle;Signal;HPM_P1;HPM_P2
2021/07/18 00:01:42;;;;;;;3.85;2.35;;;23.70;61.10;;;;;;4909857;29;20040;-73
2021/07/18 00:04:08;;;;;;;3.88;2.85;;;23.70;61.10;;;;;;4909775;29;20100;-73
2021/07/18 00:06:34;;;;;;;3.47;2.22;;;23.70;61.20;;;;;;4909489;29;20024;-73
2021/07/18 00:09:02;;;;;;;2.92;2.50;;;23.60;61.10;;;;;;4919310;29;20493;-73
2021/07/18 00:11:28;;;;;;;2.50;2.15;;;23.60;61.20;;;;;;4926921;29;20046;-75
2021/07/18 00:13:54;;;;;;;2.95;2.30;;;23.50;61.10;;;;;;4928018;29;20284;-76
2021/07/18 00:16:20;;;;;;;2.92;2.40;;;23.50;61.20;;;;;;4927783;29;20081;-75
2021/07/18 00:18:46;;;;;;;5.25;2.63;;;23.40;61.10;;;;;;4918559;29;20032;-75
2021/07/18 00:21:12;;;;;;;2.92;2.45;;;23.40;61.20;;;;;;4929133;29;20476;-78
2021/07/18 00:23:37;;;;;;;4.53;2.85;;;23.40;61.30;;;;;;4927689;29;20119;-78
2021/07/18 00:26:04;;;;;;;2.80;2.45;;;23.30;61.20;;;;;;4928012;29;20028;-73
2021/07/18 00:28:31;;;;;;;3.20;2.88;;;23.30;61.30;;;;;;4929032;29;20035;-74
2021/07/18 00:31:00;;;;;;;5.53;2.60;;;23.20;61.20;;;;;;4928810;29;20031;-74
2021/07/18 00:33:29;;;;;;;3.53;2.50;;;23.20;61.20;;;;;;4927976;29;20364;-75
2021/07/18 00:35:55;;;;;;;4.50;2.53;;;23.10;61.10;;;;;;4943121;29;20358;-77
2021/07/18 00:38:21;;;;;;;4.32;2.45;;;23.10;61.30;;;;;;4928927;29;20127;-75
2021/07/18 00:40:49;;;;;;;6.10;2.60;;;23.10;61.40;;;;;;4928223;29;20418;-81
2021/07/18 00:43:15;;;;;;;4.80;3.15;;;23.10;61.40;;;;;;4927530;29;20044;-76
2021/07/18 00:45:41;;;;;;;5.13;2.95;;;23.00;61.30;;;;;;4928693;29;20505;-78
2021/07/18 00:48:07;;;;;;;4.15;2.58;;;23.00;61.40;;;;;;4926446;29;20036;-77
2021/07/18 00:50:33;;;;;;;4.28;2.10;;;22.90;61.30;;;;;;4919436;29;20463;-75
2021/07/18 00:52:59;;;;;;;5.15;2.90;;;22.90;61.30;;;;;;4928665;29;20028;-76
2021/07/18 00:55:25;;;;;;;3.20;2.45;;;22.90;61.50;;;;;;4927582;29;20058;-73
2021/07/18 00:57:53;;;;;;;4.55;2.42;;;22.90;61.60;;;;;;4928797;29;20318;-76
2021/07/18 01:00:19;;;;;;;4.18;3.00;;;22.80;61.40;;;;;;4928164;29;20476;-76
2021/07/18 01:02:46;;;;;;;3.85;2.80;;;22.80;61.50;;;;;;4927090;29;20047;-75
2021/07/18 01:05:14;;;;;;;3.67;2.78;;;22.70;61.40;;;;;;4928247;29;20042;-72
2021/07/18 01:07:40;;;;;;;3.90;2.95;;;22.70;61.60;;;;;;4943571;29;20087;-78
2021/07/18 01:10:09;;;;;;;3.80;2.88;;;22.70;61.60;;;;;;4942665;29;20032;-77
2021/07/18 01:12:35;;;;;;;3.65;2.95;;;22.60;61.50;;;;;;4927934;29;20112;-74
2021/07/18 01:15:01;;;;;;;4.72;2.78;;;22.60;61.60;;;;;;4928251;29;20098;-75
2021/07/18 01:17:29;;;;;;;5.97;2.75;;;22.50;61.50;;;;;;4932131;29;20043;-77
2021/07/18 01:19:55;;;;;;;4.90;2.75;;;22.50;61.50;;;;;;4921624;29;20384;-75
2021/07/18 01:22:22;;;;;;;3.30;2.47;;;22.50;61.60;;;;;;4931409;29;20045;-77
2021/07/18 01:24:48;;;;;;;5.95;2.75;;;22.50;61.70;;;;;;4931307;29;20106;-75
2021/07/18 01:27:14;;;;;;;3.75;2.95;;;22.40;61.60;;;;;;4930008;29;20409;-74
2021/07/18 01:29:42;;;;;;;3.50;2.47;;;22.40;61.70;;;;;;4931374;29;20038;-75
2021/07/18 01:32:08;;;;;;;3.45;2.58;;;22.40;61.70;;;;;;4916354;29;20024;-83
2021/07/18 01:34:34;;;;;;;4.50;2.95;;;22.40;61.80;;;;;;4914238;29;20035;-79
2021/07/18 01:37:00;;;;;;;4.13;3.00;;;22.30;61.70;;;;;;4914034;29;20119;-74
2021/07/18 01:39:26;;;;;;;4.05;2.83;;;22.30;61.70;;;;;;4925238;29;20028;-75
2021/07/18 01:41:57;;;;;;;4.05;2.47;;;22.30;61.80;;;;;;4931565;29;20027;-74
2021/07/18 01:44:23;;;;;;;4.05;2.38;;;22.20;61.80;;;;;;4932128;29;20135;-77
2021/07/18 01:46:51;;;;;;;4.47;2.83;;;22.20;61.70;;;;;;4920981;29;20060;-80
2021/07/18 01:49:17;;;;;;;4.85;3.38;;;22.20;61.80;;;;;;4917410;29;20036;-75
2021/07/18 01:51:43;;;;;;;3.03;2.72;;;22.10;61.70;;;;;;4917378;29;20040;-80
2021/07/18 01:54:10;;;;;;;3.53;2.85;;;22.10;61.80;;;;;;4917058;29;20480;-73
2021/07/18 01:56:36;;;;;;;4.05;3.05;;;22.10;61.80;;;;;;4917520;29;20032;-74
2021/07/18 01:59:02;;;;;;;4.95;2.85;;;22.10;61.90;;;;;;4916514;29;20036;-74
2021/07/18 02:01:31;;;;;;;3.25;2.50;;;22.00;61.80;;;;;;4916846;29;20105;-74
2021/07/18 02:03:58;;;;;;;4.35;3.20;;;22.00;61.80;;;;;;4916729;29;20147;-73
2021/07/18 02:06:25;;;;;;;4.13;2.67;;;21.90;61.70;;;;;;4907765;29;20055;-77
2021/07/18 02:08:55;;;;;;;5.75;2.67;;;21.90;61.80;;;;;;4916550;29;20119;-74
2021/07/18 02:11:22;;;;;;;4.38;2.80;;;21.90;62.00;;;;;;4915602;29;20576;-73
2021/07/18 02:13:49;;;;;;;2.97;2.67;;;21.90;62.00;;;;;;4916462;29;20031;-73
2021/07/18 02:16:16;;;;;;;6.03;2.95;;;21.90;62.00;;;;;;4914994;29;20127;-75
2021/07/18 02:18:43;;;;;;;4.57;3.40;;;21.90;62.10;;;;;;4915400;29;20119;-76
2021/07/18 02:21:09;;;;;;;3.15;2.60;;;21.80;61.90;;;;;;4915921;29;20130;-74
2021/07/18 02:23:35;;;;;;;3.88;2.70;;;21.70;61.80;;;;;;4916191;29;20067;-73
2021/07/18 02:26:02;;;;;;;3.65;2.67;;;21.80;62.10;;;;;;4916053;29;20392;-75
2021/07/18 02:28:28;;;;;;;3.55;2.55;;;21.80;62.20;;;;;;4915315;29;20064;-74
2021/07/18 02:30:54;;;;;;;3.33;2.78;;;21.70;62.00;;;;;;4916477;29;20107;-76
2021/07/18 02:33:20;;;;;;;4.00;2.63;;;21.70;62.10;;;;;;4915833;29;20472;-75
2021/07/18 02:35:46;;;;;;;8.02;2.25;;;21.70;62.10;;;;;;4916214;29;20090;-78
2021/07/18 02:38:12;;;;;;;3.45;2.58;;;21.70;62.20;;;;;;4915575;29;20494;-73
2021/07/18 02:40:38;;;;;;;5.60;2.70;;;21.70;62.20;;;;;;4915734;29;20032;-73
2021/07/18 02:43:04;;;;;;;6.00;2.97;;;21.60;62.10;;;;;;4915574;29;20044;-73
2021/07/18 02:45:30;;;;;;;3.55;2.83;;;21.60;62.10;;;;;;4915837;29;20127;-76
2021/07/18 02:47:57;;;;;;;5.13;3.22;;;21.60;62.20;;;;;;4914922;29;20024;-74
2021/07/18 02:50:28;;;;;;;4.22;3.13;;;21.60;62.20;;;;;;4915815;29;20531;-75
2021/07/18 02:52:55;;;;;;;3.92;2.90;;;21.60;62.30;;;;;;4905427;29;20328;-76
2021/07/18 02:55:21;;;;;;;3.63;2.88;;;21.50;62.10;;;;;;4915656;29;20043;-77
2021/07/18 02:57:48;;;;;;;3.50;2.60;;;21.50;62.10;;;;;;4916094;29;20065;-79
2021/07/18 03:00:16;;;;;;;5.15;3.00;;;21.50;62.20;;;;;;4915492;29;20075;-76
2021/07/18 03:02:44;;;;;;;3.55;3.20;;;21.50;62.30;;;;;;4915961;29;20028;-79
2021/07/18 03:05:10;;;;;;;3.92;2.60;;;21.50;62.30;;;;;;4930678;29;20044;-74
2021/07/18 03:07:38;;;;;;;5.43;2.80;;;21.40;62.20;;;;;;4915245;29;20032;-74
2021/07/18 03:10:06;;;;;;;5.55;3.10;;;21.40;62.20;;;;;;4915420;29;20079;-73
2021/07/18 03:12:32;;;;;;;3.85;3.20;;;21.40;62.20;;;;;;4914803;29;20032;-74
2021/07/18 03:14:59;;;;;;;5.70;3.17;;;21.30;62.10;;;;;;4915510;29;20187;-76
2021/07/18 03:17:25;;;;;;;4.50;3.20;;;21.30;62.10;;;;;;4914537;29;20039;-86
2021/07/18 03:19:52;;;;;;;3.60;2.90;;;21.30;62.20;;;;;;4915680;29;20028;-79
2021/07/18 03:22:19;;;;;;;3.83;2.58;;;21.30;62.20;;;;;;4915991;29;20044;-75
2021/07/18 03:24:44;;;;;;;3.20;2.83;;;21.20;62.10;;;;;;4914750;29;20040;-73
2021/07/18 03:27:10;;;;;;;3.67;3.35;;;21.20;62.10;;;;;;4915408;29;20071;-75
2021/07/18 03:29:36;;;;;;;5.03;2.90;;;21.20;62.70;;;;;;4914230;29;20036;-74
2021/07/18 03:32:03;;;;;;;3.88;3.15;;;21.10;62.10;;;;;;4915079;29;20180;-79
2021/07/18 03:34:29;;;;;;;3.20;2.50;;;21.10;62.10;;;;;;4915501;29;20031;-76
2021/07/18 03:36:55;;;;;;;4.72;2.97;;;21.10;62.10;;;;;;4915821;29;20032;-79
2021/07/18 03:39:21;;;;;;;5.13;2.75;;;21.10;62.80;;;;;;4905628;29;20028;-74
2021/07/18 03:41:47;;;;;;;5.55;2.97;;;21.00;62.10;;;;;;4915143;29;20489;-75
2021/07/18 03:44:13;;;;;;;4.97;3.17;;;21.00;62.10;;;;;;4915321;29;20050;-78
2021/07/18 03:46:39;;;;;;;6.57;3.50;;;21.00;62.20;;;;;;4916023;29;20071;-75
2021/07/18 03:49:05;;;;;;;5.47;3.78;;;21.00;62.30;;;;;;4916187;29;20059;-77
2021/07/18 03:51:31;;;;;;;5.00;3.40;;;20.90;62.20;;;;;;4930297;29;20055;-76
2021/07/18 03:53:57;;;;;;;4.38;3.10;;;20.90;62.20;;;;;;4929570;29;20139;-74
2021/07/18 03:56:23;;;;;;;4.00;3.40;;;20.90;62.30;;;;;;4913615;29;20095;-74
2021/07/18 03:58:53;;;;;;;4.20;3.45;;;20.80;62.20;;;;;;4929714;29;20036;-77
2021/07/18 04:01:20;;;;;;;3.58;2.78;;;20.80;62.30;;;;;;4915284;29;20028;-80
2021/07/18 04:03:48;;;;;;;5.25;3.25;;;20.80;62.30;;;;;;4914543;29;20039;-78
2021/07/18 04:06:16;;;;;;;4.32;3.25;;;20.80;62.30;;;;;;4914909;29;20500;-75
2021/07/18 04:08:42;;;;;;;3.67;3.10;;;20.70;62.20;;;;;;4914998;29;20037;-78
2021/07/18 04:11:08;;;;;;;4.72;3.47;;;20.70;62.30;;;;;;4914499;29;20081;-74
2021/07/18 04:13:35;;;;;;;8.50;3.38;;;20.70;62.30;;;;;;4915140;29;20032;-75
2021/07/18 04:16:01;;;;;;;4.97;3.28;;;20.70;62.40;;;;;;4914061;29;20036;-76
2021/07/18 04:18:27;;;;;;;7.10;3.40;;;20.70;62.40;;;;;;4914452;29;20067;-76
2021/07/18 04:20:53;;;;;;;3.70;3.22;;;20.60;62.30;;;;;;4914919;29;20158;-75
2021/07/18 04:23:19;;;;;;;3.83;3.33;;;20.60;62.30;;;;;;4905019;29;20072;-79
2021/07/18 04:25:45;;;;;;;7.07;3.83;;;20.60;62.40;;;;;;4914725;29;20059;-78
2021/07/18 04:28:14;;;;;;;4.07;3.30;;;20.60;62.50;;;;;;4929111;29;20032;-74
2021/07/18 04:30:48;;;;;;;3.95;3.10;;;20.60;62.50;;;;;;4913512;29;20444;-72
2021/07/18 04:33:14;;;;;;;4.35;3.60;;;20.60;62.60;;;;;;4914130;29;20083;-75
2021/07/18 04:35:40;;;;;;;4.63;3.58;;;20.60;62.60;;;;;;4914719;29;20135;-75
2021/07/18 04:38:09;;;;;;;3.42;2.72;;;20.60;62.60;;;;;;4914666;29;20036;-74
2021/07/18 04:40:35;;;;;;;3.55;3.17;;;20.50;62.50;;;;;;4914103;29;20476;-81
2021/07/18 04:43:02;;;;;;;5.05;3.50;;;20.50;62.50;;;;;;4914433;29;20036;-79
2021/07/18 04:45:28;;;;;;;4.15;3.40;;;20.50;62.60;;;;;;4928560;29;20389;-74
2021/07/18 04:47:56;;;;;;;4.20;3.15;;;20.50;62.60;;;;;;4911246;29;20111;-73
2021/07/18 04:50:24;;;;;;;5.20;3.42;;;20.50;62.70;;;;;;4910536;29;20036;-75
2021/07/18 04:52:50;;;;;;;4.60;3.30;;;20.40;62.50;;;;;;4914703;29;20056;-74
2021/07/18 04:55:17;;;;;;;6.03;3.28;;;20.40;62.60;;;;;;4904516;29;20412;-75
2021/07/18 04:57:43;;;;;;;4.15;3.10;;;20.40;62.60;;;;;;4918659;29;20091;-77
2021/07/18 05:00:14;;;;;;;7.13;3.95;;;20.40;62.60;;;;;;4933652;29;20040;-81
2021/07/18 05:02:40;;;;;;;4.35;3.80;;;20.40;62.80;;;;;;4927659;29;20051;-74
2021/07/18 05:05:08;;;;;;;5.93;3.63;;;20.40;62.70;;;;;;4912300;29;20107;-75
2021/07/18 05:07:47;;;;;;;5.72;3.50;;;20.40;62.80;;;;;;4913135;29;20028;-73
2021/07/18 05:10:14;;;;;;;4.63;3.40;;;20.40;62.90;;;;;;4913301;29;20028;-72
2021/07/18 05:12:40;;;;;;;4.10;3.28;;;20.40;62.80;;;;;;4918024;29;20043;-74
2021/07/18 05:15:06;;;;;;;3.70;3.15;;;20.40;62.80;;;;;;4931982;29;20463;-74
2021/07/18 05:17:32;;;;;;;4.05;3.33;;;20.40;62.80;;;;;;4929843;29;20039;-75
2021/07/18 05:19:58;;;;;;;4.28;3.45;;;20.40;62.90;;;;;;4932442;29;20039;-75
2021/07/18 05:22:27;;;;;;;4.00;3.60;;;20.40;62.90;;;;;;4930107;29;20043;-74
2021/07/18 05:24:53;;;;;;;4.15;3.22;;;20.40;63.00;;;;;;4922300;29;20071;-77
2021/07/18 05:27:20;;;;;;;4.70;3.35;;;20.40;62.90;;;;;;4931995;29;20066;-74
2021/07/18 05:29:47;;;;;;;5.88;3.90;;;20.40;62.90;;;;;;4930264;29;20399;-75
2021/07/18 05:32:13;;;;;;;5.72;3.60;;;20.40;63.00;;;;;;4931484;29;20036;-73
2021/07/18 05:34:39;;;;;;;4.57;3.90;;;20.40;63.00;;;;;;4931311;29;20040;-77
2021/07/18 05:37:08;;;;;;;3.67;3.25;;;20.50;63.20;;;;;;4913615;29;20046;-74
2021/07/18 05:39:34;;;;;;;4.45;3.72;;;20.50;63.20;;;;;;4913944;29;20114;-73
2021/07/18 05:42:00;;;;;;;5.45;3.78;;;20.50;63.20;;;;;;4912667;29;20042;-73
2021/07/18 05:44:29;;;;;;;3.83;3.45;;;20.50;63.20;;;;;;4929889;29;20095;-73
2021/07/18 05:46:55;;;;;;;4.10;3.40;;;20.50;63.30;;;;;;4911803;29;20103;-72
2021/07/18 05:49:21;;;;;;;4.85;3.60;;;20.60;63.40;;;;;;4912107;29;20039;-76
2021/07/18 05:51:47;;;;;;;6.28;3.55;;;20.60;63.40;;;;;;4912171;29;20048;-72
2021/07/18 05:54:13;;;;;;;3.75;3.33;;;20.60;63.30;;;;;;4929567;29;20500;-75
2021/07/18 05:56:39;;;;;;;4.80;3.80;;;20.60;63.30;;;;;;4931077;29;20032;-77
2021/07/18 05:59:05;;;;;;;4.10;3.70;;;20.60;63.30;;;;;;4930509;29;20518;-74
2021/07/18 06:01:31;;;;;;;5.78;3.80;;;20.70;63.50;;;;;;4930966;29;20123;-74
2021/07/18 06:03:57;;;;;;;3.88;3.25;;;20.70;63.50;;;;;;4919152;29;20028;-73
2021/07/18 06:06:23;;;;;;;6.13;3.20;;;20.70;63.50;;;;;;4911415;29;20413;-74
2021/07/18 06:08:49;;;;;;;4.00;3.47;;;20.80;63.70;;;;;;4920703;29;20110;-75
2021/07/18 06:11:15;;;;;;;4.53;3.33;;;20.80;63.70;;;;;;4926416;29;20031;-77
2021/07/18 06:13:42;;;;;;;3.45;3.05;;;20.90;63.90;;;;;;4925571;29;20495;-72
2021/07/18 06:16:08;;;;;;;5.03;3.83;;;21.00;64.00;;;;;;4930691;29;20028;-73
2021/07/18 06:18:35;;;;;;;3.85;3.53;;;21.10;64.20;;;;;;4931215;29;20087;-77
2021/07/18 06:21:01;;;;;;;5.15;4.18;;;21.20;64.40;;;;;;4911091;29;20536;-74
2021/07/18 06:23:28;;;;;;;4.97;3.53;;;21.30;64.50;;;;;;4920416;29;20047;-73
2021/07/18 06:25:54;;;;;;;3.63;3.22;;;21.40;64.60;;;;;;4911478;29;20028;-73
2021/07/18 06:28:20;;;;;;;5.32;3.53;;;21.50;64.70;;;;;;4919149;29;20118;-76
2021/07/18 06:30:46;;;;;;;4.88;4.03;;;21.60;64.80;;;;;;4931030;29;20028;-76
2021/07/18 06:33:12;;;;;;;9.13;4.57;;;21.80;65.30;;;;;;4919234;29;20043;-74
2021/07/18 06:35:38;;;;;;;6.90;5.10;;;22.00;65.80;;;;;;4915539;29;20388;-74
2021/07/18 06:38:04;;;;;;;5.75;4.40;;;22.10;66.00;;;;;;4910313;29;20055;-76
2021/07/18 06:40:31;;;;;;;6.80;5.05;;;22.30;66.50;;;;;;4911532;29;20031;-78
2021/07/18 06:42:57;;;;;;;8.25;5.03;;;22.50;67.00;;;;;;4913851;29;20468;-73
2021/07/18 06:45:23;;;;;;;8.38;5.05;;;22.70;67.40;;;;;;4911763;29;20063;-73
2021/07/18 06:47:49;;;;;;;9.05;5.30;;;22.90;67.80;;;;;;4915352;29;20032;-75
2021/07/18 06:50:16;;;;;;;5.70;4.95;;;23.20;68.30;;;;;;4923101;29;20033;-74
2021/07/18 06:52:42;;;;;;;4.72;4.32;;;23.40;68.50;;;;;;4911076;29;20075;-73
2021/07/18 06:55:09;;;;;;;8.85;5.32;;;23.70;68.90;;;;;;4909319;29;20032;-74
2021/07/18 06:57:35;;;;;;;6.15;4.88;;;24.10;69.30;;;;;;4928259;29;20513;-74
2021/07/18 07:00:01;;;;;;;5.50;4.70;;;24.40;69.30;;;;;;4920731;29;20028;-74
2021/07/18 07:02:27;;;;;;;7.80;4.57;;;24.80;69.50;;;;;;4914938;29;20047;-73
2021/07/18 07:04:52;;;;;;;6.57;4.57;;;25.20;69.40;;;;;;4914129;29;20543;-73
2021/07/18 07:07:18;;;;;;;6.32;4.35;;;25.60;69.10;;;;;;4909707;29;20028;-73
2021/07/18 07:09:44;;;;;;;5.93;4.57;;;25.90;68.60;;;;;;4925376;29;20091;-73
2021/07/18 07:12:11;;;;;;;4.80;4.05;;;26.30;68.20;;;;;;4911694;29;20032;-72
2021/07/18 07:14:36;;;;;;;5.20;3.17;;;26.60;67.70;;;;;;4927406;29;20028;-75
2021/07/18 07:17:03;;;;;;;5.55;3.60;;;27.00;67.20;;;;;;4943869;29;20126;-76
2021/07/18 07:19:29;;;;;;;5.05;3.30;;;27.40;66.60;;;;;;4928254;29;20089;-74
2021/07/18 07:21:55;;;;;;;3.45;3.10;;;27.70;66.10;;;;;;4918066;29;20492;-74
2021/07/18 07:24:21;;;;;;;4.78;3.28;;;28.10;65.50;;;;;;4927663;29;20047;-79
2021/07/18 07:26:47;;;;;;;4.25;3.75;;;28.50;64.90;;;;;;4929241;29;20038;-76
2021/07/18 07:29:13;;;;;;;6.43;3.42;;;28.80;64.20;;;;;;4928651;29;20038;-74
2021/07/18 07:31:39;;;;;;;3.75;3.17;;;29.20;63.50;;;;;;4929589;29;20136;-75
2021/07/18 07:34:05;;;;;;;3.97;3.58;;;29.60;62.80;;;;;;4928631;29;20372;-75
2021/07/18 07:36:31;;;;;;;4.25;3.42;;;29.90;62.10;;;;;;4928947;29;20036;-75
2021/07/18 07:38:57;;;;;;;4.40;3.15;;;30.30;61.40;;;;;;4921278;29;20619;-74
2021/07/18 07:41:23;;;;;;;6.13;3.33;;;30.60;60.70;;;;;;4909313;29;20052;-75
2021/07/18 07:43:53;;;;;;;6.78;3.45;;;30.90;60.00;;;;;;4922934;29;20038;-75
2021/07/18 07:46:19;;;;;;;5.40;3.47;;;31.30;59.50;;;;;;4905550;29;20036;-78
2021/07/18 07:48:45;;;;;;;4.75;2.88;;;31.60;58.80;;;;;;4906753;29;20028;-75
2021/07/18 07:51:11;;;;;;;5.00;3.08;;;31.90;58.10;;;;;;4909143;29;20063;-77
2021/07/18 07:53:37;;;;;;;3.90;2.88;;;32.20;57.40;;;;;;4905893;29;20287;-75
2021/07/18 07:56:03;;;;;;;4.53;3.05;;;32.50;56.80;;;;;;4909388;29;20028;-77
2021/07/18 07:58:30;;;;;;;3.67;3.10;;;32.90;56.20;;;;;;4909686;29;20040;-75
2021/07/18 08:00:56;;;;;;;4.93;2.63;;;33.20;55.60;;;;;;4909622;29;20040;-74
2021/07/18 08:03:22;;;;;;;4.57;2.78;;;33.50;55.00;;;;;;4917134;29;20099;-74
2021/07/18 08:05:48;;;;;;;3.08;2.72;;;33.80;54.40;;;;;;4915033;29;20028;-74
2021/07/18 08:08:14;;;;;;;7.80;3.15;;;34.10;53.80;;;;;;4916567;29;20098;-75
2021/07/18 08:10:40;;;;;;;2.88;2.60;;;34.40;53.20;;;;;;4928130;29;20070;-77
2021/07/18 08:13:06;;;;;;;3.35;2.63;;;34.70;52.60;;;;;;4928172;29;20063;-75
2021/07/18 08:15:34;;;;;;;3.72;3.13;;;35.00;52.10;;;;;;4907672;29;20043;-74
2021/07/18 08:18:00;;;;;;;4.28;2.97;;;35.20;51.40;;;;;;4914682;29;20039;-73
2021/07/18 08:20:26;;;;;;;4.00;2.90;;;35.50;50.90;;;;;;4928581;29;20036;-73
2021/07/18 08:22:54;;;;;;;4.70;3.05;;;35.80;50.30;;;;;;4928304;29;20082;-73
2021/07/18 08:25:23;;;;;;;6.30;3.47;;;36.10;49.70;;;;;;4929718;29;20048;-74
2021/07/18 08:27:49;;;;;;;6.07;2.80;;;36.30;49.10;;;;;;4915189;29;20039;-73
2021/07/18 08:30:16;;;;;;;6.43;2.45;;;36.50;48.60;;;;;;4930486;29;20099;-77
2021/07/18 08:32:42;;;;;;;10.52;3.15;;;36.80;48.10;;;;;;4925204;29;20032;-75
2021/07/18 08:35:09;;;;;;;2.60;2.22;;;37.10;48.30;;;;;;4911700;29;20555;-74
2021/07/18 08:37:35;;;;;;;4.35;2.30;;;37.40;47.10;;;;;;4913692;29;20214;-74
2021/07/18 08:40:08;;;;;;;3.22;2.45;;;37.70;46.60;;;;;;4931580;29;20127;-75
2021/07/18 08:42:35;;;;;;;3.97;2.50;;;37.90;45.90;;;;;;4930567;29;20032;-74
2021/07/18 08:45:03;;;;;;;4.03;2.50;;;38.20;45.60;;;;;;4925606;29;20050;-74
2021/07/18 08:47:29;;;;;;;4.70;3.22;;;38.40;45.10;;;;;;4913504;29;20095;-78
2021/07/18 08:49:55;;;;;;;8.18;3.15;;;38.60;44.10;;;;;;4921512;29;20067;-75
2021/07/18 08:52:23;;;;;;;8.00;3.20;;;38.50;43.40;;;;;;4908642;29;20067;-74
2021/07/18 08:54:53;;;;;;;6.20;3.20;;;38.30;43.10;;;;;;4907518;29;20056;-73
2021/07/18 08:57:22;;;;;;;5.75;3.28;;;38.10;43.00;;;;;;4902234;29;20051;-74
2021/07/18 08:59:49;;;;;;;6.47;3.58;;;37.90;43.20;;;;;;4912630;29;20048;-73
2021/07/18 09:02:16;;;;;;;7.80;3.38;;;37.60;43.00;;;;;;4914515;29;20078;-74
2021/07/18 09:04:43;;;;;;;6.57;3.03;;;37.40;43.20;;;;;;4931324;29;20044;-74
2021/07/18 09:07:10;;;;;;;7.20;3.70;;;37.10;43.30;;;;;;4931680;29;20489;-74
2021/07/18 09:09:37;;;;;;;43.70;21.73;;;36.80;43.30;;;;;;4928975;29;20032;-73
2021/07/18 09:12:08;;;;;;;9.23;5.82;;;36.40;43.80;;;;;;4918120;29;20032;-73
2021/07/18 09:14:34;;;;;;;14.32;8.95;;;36.00;44.40;;;;;;4931800;29;20034;-74
2021/07/18 09:17:00;;;;;;;6.93;5.30;;;35.60;44.90;;;;;;4929392;29;20230;-74
2021/07/18 09:19:30;;;;;;;5.50;3.80;;;35.20;45.50;;;;;;4928803;29;20031;-74
2021/07/18 09:22:05;;;;;;;4.18;3.30;;;34.80;46.00;;;;;;4925290;29;20075;-74
2021/07/18 09:24:38;;;;;;;5.07;3.58;;;34.40;46.20;;;;;;4911753;29;20043;-74
2021/07/18 09:27:18;;;;;;;5.18;4.05;;;34.10;46.70;;;;;;4911847;29;20440;-74
2021/07/18 09:29:51;;;;;;;6.72;3.50;;;33.90;47.00;;;;;;4917805;29;20031;-75
2021/07/18 09:32:29;;;;;;;4.95;3.33;;;33.80;47.20;;;;;;4913598;29;20492;-74
2021/07/18 09:35:10;;;;;;;7.07;3.70;;;33.70;47.20;;;;;;4921881;29;20463;-74
2021/07/18 09:37:42;;;;;;;7.30;4.25;;;33.60;47.30;;;;;;4930589;29;20038;-74
2021/07/18 09:40:11;;;;;;;8.30;3.92;;;33.50;47.60;;;;;;4909560;29;20036;-75
2021/07/18 09:42:51;;;;;;;6.75;3.97;;;33.40;47.80;;;;;;4926260;29;20205;-74
2021/07/18 09:45:23;;;;;;;10.32;3.58;;;33.40;47.90;;;;;;4911482;29;20036;-75
2021/07/18 09:47:58;;;;;;;7.00;4.03;;;33.30;48.30;;;;;;4913960;29;20651;-74
2021/07/18 09:50:30;;;;;;;7.82;4.18;;;33.20;48.70;;;;;;4930235;29;20195;-75
2021/07/18 09:53:09;;;;;;;6.32;3.75;;;33.00;48.90;;;;;;4930435;29;20095;-74
2021/07/18 09:55:36;;;;;;;7.80;4.32;;;32.90;49.10;;;;;;4931436;29;20044;-76
2021/07/18 09:58:03;;;;;;;6.22;4.05;;;32.80;49.30;;;;;;4920852;29;20036;-75
2021/07/18 10:00:40;;;;;;;4.88;3.25;;;32.70;49.50;;;;;;4893635;29;20036;-75
2021/07/18 10:03:22;;;;;;;10.32;4.07;;;32.60;49.30;;;;;;4901025;29;20043;-75
2021/07/18 10:06:07;;;;;;;9.25;4.15;;;32.50;49.70;;;;;;4900152;29;20079;-77
2021/07/18 10:08:34;;;;;;;5.68;3.78;;;32.50;49.90;;;;;;4910740;29;20380;-75
2021/07/18 10:11:01;;;;;;;5.60;3.92;;;32.50;50.00;;;;;;4909919;29;20449;-75
2021/07/18 10:13:27;;;;;;;10.13;3.80;;;32.40;50.00;;;;;;4922401;29;20032;-76
2021/07/18 10:15:53;;;;;;;8.10;3.83;;;32.40;50.00;;;;;;4931215;29;20039;-77
2021/07/18 10:18:20;;;;;;;6.55;4.00;;;32.40;50.00;;;;;;4929314;29;20539;-74
2021/07/18 10:20:46;;;;;;;9.10;4.00;;;32.40;50.00;;;;;;4930317;29;20087;-73
2021/07/18 10:23:15;;;;;;;5.60;3.75;;;32.40;49.90;;;;;;4927743;29;20138;-74
2021/07/18 10:25:42;;;;;;;6.97;3.85;;;32.40;50.30;;;;;;4924934;29;20040;-73
2021/07/18 10:28:10;;;;;;;8.35;4.40;;;32.40;50.20;;;;;;4917252;29;20108;-73
2021/07/18 10:30:36;;;;;;;7.22;3.55;;;32.40;50.00;;;;;;4927636;29;20586;-74
2021/07/18 10:33:03;;;;;;;6.10;3.97;;;32.40;49.90;;;;;;4930014;29;20039;-72
2021/07/18 10:35:31;;;;;;;6.20;2.60;;;32.40;49.80;;;;;;4930385;29;20086;-75
2021/07/18 10:38:17;;;;;;;3.95;3.25;;;32.40;49.20;;;;;;4917798;29;20560;-85
2021/07/18 10:40:46;;;;;;;7.18;4.13;;;32.40;49.20;;;;;;4909943;29;20126;-74
2021/07/18 10:43:36;;;;;;;4.68;3.75;;;32.50;49.40;;;;;;4917288;29;20028;-73
2021/07/18 10:46:05;;;;;;;6.10;3.67;;;32.50;49.60;;;;;;4929704;29;20373;-74
2021/07/18 10:48:43;;;;;;;5.55;4.13;;;32.50;49.70;;;;;;4929037;29;20027;-75
2021/07/18 10:51:11;;;;;;;7.68;4.22;;;32.50;50.00;;;;;;4944628;29;20055;-74
2021/07/18 10:53:38;;;;;;;4.43;3.95;;;32.60;50.10;;;;;;4929502;29;20035;-75
2021/07/18 10:56:05;;;;;;;4.85;3.20;;;32.60;49.70;;;;;;4929606;29;20095;-73
2021/07/18 10:58:40;;;;;;;5.25;3.28;;;32.60;48.80;;;;;;4929818;29;20141;-77
2021/07/18 11:01:18;;;;;;;8.10;4.07;;;32.70;48.30;;;;;;4928613;29;20032;-73
2021/07/18 11:03:44;;;;;;;4.88;2.95;;;32.70;47.80;;;;;;4929893;29;20048;-74
2021/07/18 11:06:22;;;;;;;5.47;3.67;;;32.70;47.80;;;;;;4928498;29;20177;-77
2021/07/18 11:09:10;;;;;;;4.35;2.95;;;32.80;47.40;;;;;;5103718;27;20438;-76
2021/07/18 11:11:46;;;;;;;3.15;2.85;;;32.80;46.70;;;;;;5098698;28;20096;-78
2021/07/18 11:14:27;;;;;;;4.63;3.42;;;32.90;46.60;;;;;;5082070;28;20040;-80
2021/07/18 11:16:57;;;;;;;3.88;3.38;;;33.00;46.40;;;;;;5073061;28;20512;-75
2021/07/18 11:19:38;;;;;;;6.90;3.60;;;33.00;46.20;;;;;;5081418;28;20031;-78
2021/07/18 11:22:12;;;;;;;5.78;3.40;;;33.00;45.60;;;;;;5074485;28;20079;-74
2021/07/18 11:24:47;;;;;;;5.03;3.92;;;33.10;45.90;;;;;;5062682;28;20043;-74
2021/07/18 11:27:29;;;;;;;12.57;4.07;;;33.10;46.10;;;;;;5061700;28;20044;-76
2021/07/18 11:29:57;;;;;;;5.35;3.55;;;33.10;46.50;;;;;;5062403;28;20035;-74
2021/07/18 11:32:28;;;;;;;4.85;3.70;;;33.20;46.80;;;;;;5080779;28;20028;-73
2021/07/18 11:34:55;;;;;;;3.60;3.30;;;33.30;46.80;;;;;;5082611;28;20116;-73
2021/07/18 11:37:22;;;;;;;3.92;3.22;;;33.30;46.80;;;;;;5082684;28;20063;-76
2021/07/18 11:39:48;;;;;;;3.63;3.22;;;33.40;47.00;;;;;;5081099;28;20039;-76
2021/07/18 11:42:16;;;;;;;5.10;3.13;;;33.40;46.90;;;;;;5081893;28;20024;-74
2021/07/18 11:44:44;;;;;;;5.70;2.83;;;33.40;46.90;;;;;;5079929;28;20496;-74
2021/07/18 11:47:16;;;;;;;4.45;3.03;;;33.40;46.90;;;;;;5079219;28;20036;-74
2021/07/18 11:49:48;;;;;;;5.45;3.08;;;33.40;46.70;;;;;;5079347;28;20025;-73
2021/07/18 11:52:16;;;;;;;4.82;3.03;;;33.40;46.60;;;;;;5082635;28;20036;-77
2021/07/18 11:54:43;;;;;;;4.30;2.53;;;33.40;46.40;;;;;;5082575;28;20327;-75
2021/07/18 11:57:13;;;;;;;3.45;2.97;;;33.40;46.30;;;;;;5082627;28;20073;-74
2021/07/18 11:59:41;;;;;;;5.10;3.13;;;33.40;46.10;;;;;;5080363;28;20036;-75
2021/07/18 12:02:08;;;;;;;3.95;2.65;;;33.40;46.20;;;;;;5075965;28;20024;-74
2021/07/18 12:04:35;;;;;;;3.42;3.13;;;33.40;46.30;;;;;;5065367;28;20591;-74
2021/07/18 12:07:04;;;;;;;6.07;3.10;;;33.40;46.20;;;;;;5072221;28;20087;-77
2021/07/18 12:09:40;;;;;;;5.13;3.20;;;33.50;46.10;;;;;;5071685;28;20338;-74
2021/07/18 12:12:09;;;;;;;5.10;3.40;;;33.50;46.20;;;;;;5059960;28;20082;-76
2021/07/18 12:14:35;;;;;;;3.17;2.45;;;33.50;46.10;;;;;;5077475;28;20025;-76
2021/07/18 12:17:05;;;;;;;4.93;2.92;;;33.50;46.00;;;;;;5061895;28;20191;-77
2021/07/18 12:19:32;;;;;;;4.05;2.65;;;33.60;46.80;;;;;;5068107;28;20391;-75
2021/07/18 12:22:01;;;;;;;5.10;2.85;;;33.60;46.20;;;;;;5067668;28;20032;-74
2021/07/18 12:24:38;;;;;;;4.20;3.05;;;33.60;45.90;;;;;;5062298;28;20067;-75
2021/07/18 12:27:24;;;;;;;8.05;2.70;;;33.60;45.90;;;;;;5063970;28;20020;-76
2021/07/18 12:29:54;;;;;;;3.42;2.75;;;33.60;45.70;;;;;;5068547;28;20031;-75
2021/07/18 12:32:24;;;;;;;6.53;2.97;;;33.70;45.70;;;;;;5068487;28;20443;-75
2021/07/18 12:34:52;;;;;;;8.18;3.53;;;33.70;45.50;;;;;;5068255;28;20514;-75
2021/07/18 12:37:21;;;;;;;6.28;2.97;;;33.80;45.40;;;;;;5068758;28;20468;-76
2021/07/18 12:39:56;;;;;;;7.75;3.58;;;33.80;45.20;;;;;;5067562;28;20111;-76
2021/07/18 12:42:43;;;;;;;5.15;3.17;;;33.80;45.20;;;;;;5067471;28;20434;-78
2021/07/18 12:45:14;;;;;;;3.28;2.60;;;33.80;45.30;;;;;;5067180;28;20583;-75
2021/07/18 12:47:42;;;;;;;4.45;3.45;;;33.80;45.30;;;;;;5068558;28;20086;-75
2021/07/18 12:50:41;;;;;;;4.30;3.47;;;33.90;45.30;;;;;;5063924;28;20025;-74